Time;durP1;ratioP1;P1;durP2;ratioP2;P2;SDS_P1;SDS_P2;PMS_P1;PMS_P2;Temp;Humidity;BMP_temperature;BMP_pressure;BME280_temperature;BME280_humidity;BME280_pressure;Samples;Min_cycle;Max_cycle;Signal;HPM_P1;HPM_P2
2024/01/01 00:00:47;;;;;;;47.22;20.08;;;;;;;5.18;100.00;99578.16;6006049;28;20038;-74
2024/01/01 00:03:43;;;;;;;40.67;18.07;;;;;;;5.20;100.00;99578.84;6005686;28;20455;-74
2024/01/01 00:06:39;;;;;;;32.97;12.75;;;;;;;5.27;100.00;99572.88;6013424;28;20081;-74
2024/01/01 00:09:34;;;;;;;29.33;11.37;;;;;;;5.28;100.00;99563.19;6014435;28;20057;-74
2024/01/01 00:12:29;;;;;;;21.67;9.77;;;;;;;5.32;100.00;99561.97;6009703;28;20058;-74
2024/01/01 00:15:24;;;;;;;19.80;8.70;;;;;;;5.35;100.00;99561.69;6004999;28;20035;-74
2024/01/01 00:18:20;;;;;;;18.07;8.17;;;;;;;5.36;100.00;99555.44;6001927;28;20038;-74
2024/01/01 00:21:15;;;;;;;20.83;7.65;;;;;;;5.50;100.00;99557.63;5996116;28;20811;-74
2024/01/01 00:24:11;;;;;;;12.60;5.00;;;;;;;5.59;100.00;99548.06;6002320;28;20034;-74
2024/01/01 00:27:06;;;;;;;10.87;4.10;;;;;;;5.77;100.00;99552.41;6005461;28;20085;-74
2024/01/01 00:30:01;;;;;;;18.13;6.80;;;;;;;5.90;100.00;99552.94;6003171;28;20653;-74
2024/01/01 00:32:57;;;;;;;12.38;4.32;;;;;;;5.98;100.00;99547.78;6014145;28;20030;-74
2024/01/01 00:35:52;;;;;;;19.70;7.70;;;;;;;6.05;100.00;99532.25;6005073;28;20042;-74
2024/01/01 00:38:48;;;;;;;45.97;21.87;;;;;;;6.02;100.00;99524.66;6012096;28;20018;-74
2024/01/01 00:41:46;;;;;;;56.00;24.65;;;;;;;6.03;100.00;99525.47;6004622;28;20184;-74
2024/01/01 00:44:46;;;;;;;49.00;23.13;;;;;;;6.00;100.00;99531.88;6009524;28;20090;-74
2024/01/01 00:47:41;;;;;;;23.33;11.88;;;;;;;5.89;100.00;99519.72;6006183;28;20521;-74
2024/01/01 00:50:36;;;;;;;17.30;7.50;;;;;;;5.89;100.00;99532.06;6015107;28;20042;-74
2024/01/01 00:53:33;;;;;;;15.80;6.30;;;;;;;5.76;100.00;99527.06;6002391;28;20031;-74
2024/01/01 00:56:28;;;;;;;13.65;4.95;;;;;;;5.77;100.00;99535.78;5999630;28;20038;-74
2024/01/01 00:59:23;;;;;;;16.45;6.55;;;;;;;5.68;100.00;99547.19;6016848;28;20109;-74
2024/01/01 01:02:20;;;;;;;15.60;5.27;;;;;;;5.65;100.00;99553.59;6009127;28;20022;-74
2024/01/01 01:05:16;;;;;;;14.18;4.90;;;;;;;5.65;100.00;99550.94;6003752;28;20693;-73
2024/01/01 01:08:11;;;;;;;11.80;4.60;;;;;;;5.64;100.00;99569.47;6012870;28;20038;-74
2024/01/01 01:11:06;;;;;;;9.07;3.83;;;;;;;5.54;100.00;99561.63;6016637;28;20449;-74
2024/01/01 01:14:02;;;;;;;13.13;4.43;;;;;;;5.53;100.00;99564.38;6005290;28;20027;-73
2024/01/01 01:16:57;;;;;;;11.70;4.07;;;;;;;5.68;100.00;99570.88;6009313;28;20077;-73
2024/01/01 01:19:52;;;;;;;16.33;4.00;;;;;;;5.71;100.00;99574.03;6006249;28;20274;-73
2024/01/01 01:22:48;;;;;;;10.23;2.83;;;;;;;5.87;100.00;99578.72;6014777;28;20042;-73
2024/01/01 01:25:44;;;;;;;12.00;2.90;;;;;;;5.89;100.00;99572.34;6016780;28;20033;-74
2024/01/01 01:28:39;;;;;;;10.27;4.20;;;;;;;5.91;100.00;99565.13;6016446;28;20269;-73
2024/01/01 01:31:34;;;;;;;11.77;3.47;;;;;;;5.92;100.00;99571.22;6012355;28;20085;-74
2024/01/01 01:34:30;;;;;;;10.10;3.47;;;;;;;5.97;100.00;99575.09;6014977;28;20033;-73
2024/01/01 01:37:25;;;;;;;6.43;2.60;;;;;;;6.07;100.00;99584.72;6008446;28;20537;-73
2024/01/01 01:40:20;;;;;;;6.83;2.77;;;;;;;6.03;100.00;99575.47;6019680;28;20497;-73
2024/01/01 01:43:19;;;;;;;8.33;3.03;;;;;;;6.07;100.00;99574.19;6011486;28;20027;-74
2024/01/01 01:46:14;;;;;;;10.55;3.40;;;;;;;6.05;100.00;99587.50;6016848;28;20388;-73
2024/01/01 01:49:10;;;;;;;6.70;2.72;;;;;;;6.04;100.00;99574.47;6013328;28;20049;-72
2024/01/01 01:52:06;;;;;;;6.13;2.50;;;;;;;5.98;100.00;99565.38;6020436;28;20023;-73
2024/01/01 01:55:01;;;;;;;10.73;2.65;;;;;;;5.95;100.00;99582.28;6010047;28;20045;-74
2024/01/01 01:57:57;;;;;;;8.77;2.65;;;;;;;5.95;100.00;99577.00;6013735;28;20030;-73
2024/01/01 02:00:54;;;;;;;6.18;2.40;;;;;;;5.87;100.00;99573.47;6010758;28;20039;-73
2024/01/01 02:03:50;;;;;;;7.70;2.83;;;;;;;5.87;100.00;99579.53;6005142;28;20045;-74
2024/01/01 02:06:45;;;;;;;7.80;2.80;;;;;;;5.86;100.00;99577.06;6013986;28;20031;-73
2024/01/01 02:09:41;;;;;;;7.47;3.03;;;;;;;5.71;100.00;99563.50;6012349;28;20370;-73
2024/01/01 02:12:36;;;;;;;9.95;2.85;;;;;;;5.69;100.00;99564.63;6010861;28;20062;-73
2024/01/01 02:15:31;;;;;;;11.20;4.05;;;;;;;5.80;100.00;99564.44;6018998;28;20121;-73
2024/01/01 02:18:27;;;;;;;9.05;3.53;;;;;;;5.86;100.00;99562.13;6010148;28;20070;-73
2024/01/01 02:21:24;;;;;;;10.80;3.43;;;;;;;5.86;100.00;99551.59;6016977;28;20109;-73
2024/01/01 02:24:20;;;;;;;8.13;3.50;;;;;;;5.90;100.00;99563.47;6018484;28;20301;-73
2024/01/01 02:27:15;;;;;;;12.13;4.40;;;;;;;6.08;100.00;99570.59;6015303;28;20038;-73
2024/01/01 02:30:11;;;;;;;14.10;4.60;;;;;;;6.14;100.00;99580.56;6015015;28;20043;-72
2024/01/01 02:33:10;;;;;;;10.32;4.53;;;;;;;6.09;100.00;99572.28;6021137;28;20031;-75
2024/01/01 02:36:05;;;;;;;11.18;4.47;;;;;;;6.18;100.00;99574.00;6015485;28;20388;-74
2024/01/01 02:39:00;;;;;;;11.48;4.15;;;;;;;6.17;100.00;99570.53;6006409;28;20081;-74
2024/01/01 02:41:56;;;;;;;10.27;4.50;;;;;;;6.23;100.00;99571.75;6017936;28;20038;-74
2024/01/01 02:44:51;;;;;;;10.57;4.93;;;;;;;6.31;100.00;99579.75;6012715;28;20073;-74
2024/01/01 02:47:46;;;;;;;13.87;4.73;;;;;;;6.27;100.00;99576.59;6009387;28;20039;-74
2024/01/01 02:50:42;;;;;;;13.77;5.27;;;;;;;6.36;100.00;99590.69;5999424;28;20033;-74
2024/01/01 02:53:37;;;;;;;12.67;4.40;;;;;;;6.28;100.00;99572.97;6010431;28;20074;-73
2024/01/01 02:56:32;;;;;;;10.60;4.53;;;;;;;6.37;100.00;99581.81;6016755;28;20022;-73
2024/01/01 02:59:27;;;;;;;10.57;4.00;;;;;;;6.36;100.00;99580.16;6015356;28;20462;-72
2024/01/01 03:02:23;;;;;;;14.27;4.23;;;;;;;6.38;100.00;99586.09;6007533;28;20073;-74
2024/01/01 03:05:22;;;;;;;15.17;4.83;;;;;;;6.36;100.00;99591.50;6014222;28;20030;-73
2024/01/01 03:08:17;;;;;;;10.75;4.78;;;;;;;6.42;100.00;99600.63;6018462;28;20042;-73
2024/01/01 03:11:13;;;;;;;10.97;3.60;;;;;;;6.49;100.00;99594.63;6018291;28;20042;-73
2024/01/01 03:14:08;;;;;;;8.13;3.55;;;;;;;6.48;100.00;99589.50;6004446;28;20047;-73
2024/01/01 03:17:03;;;;;;;12.83;4.80;;;;;;;6.48;100.00;99600.88;6017265;28;20041;-73
2024/01/01 03:19:59;;;;;;;12.88;4.13;;;;;;;6.38;100.00;99586.94;6015338;28;20506;-73
2024/01/01 03:22:55;;;;;;;11.00;3.90;;;;;;;6.32;100.00;99584.06;6003137;28;20030;-74
2024/01/01 03:25:51;;;;;;;11.27;3.63;;;;;;;6.23;100.00;99574.38;6004124;28;20034;-73
2024/01/01 03:28:51;;;;;;;10.50;3.55;;;;;;;6.29;100.00;99569.38;6018515;28;20038;-73
2024/01/01 03:31:47;;;;;;;7.43;3.22;;;;;;;6.28;100.00;99562.44;6016696;28;20038;-73
2024/01/01 03:34:42;;;;;;;10.90;3.50;;;;;;;6.32;100.00;99578.78;6010832;28;20045;-74
2024/01/01 03:37:38;;;;;;;11.43;3.33;;;;;;;6.35;100.00;99573.22;6017392;28;20019;-73
2024/01/01 03:40:33;;;;;;;9.87;3.43;;;;;;;6.26;100.00;99569.66;6009824;28;20037;-73
2024/01/01 03:43:31;;;;;;;8.50;2.83;;;;;;;6.33;100.00;99583.88;6011257;28;20033;-73
2024/01/01 03:46:26;;;;;;;11.93;3.45;;;;;;;6.33;100.00;99604.94;6014368;28;20594;-74
2024/01/01 03:49:22;;;;;;;9.77;2.73;;;;;;;6.19;100.00;99565.16;6018253;28;20041;-74
2024/01/01 03:52:17;;;;;;;5.80;2.70;;;;;;;6.33;100.00;99596.25;6008676;28;20035;-74
2024/01/01 03:55:15;;;;;;;7.50;2.87;;;;;;;6.27;100.00;99592.41;6013059;28;20042;-73
2024/01/01 03:58:12;;;;;;;7.53;2.88;;;;;;;6.26;100.00;99596.00;6015124;28;20286;-73
2024/01/01 04:01:15;;;;;;;11.00;2.92;;;;;;;6.16;100.00;99575.97;6022244;28;20047;-74
2024/01/01 04:04:10;;;;;;;10.32;3.10;;;;;;;6.34;100.00;99604.00;5994223;28;20041;-74
2024/01/01 04:07:06;;;;;;;9.82;2.97;;;;;;;6.28;100.00;99593.19;6002793;28;20035;-73
2024/01/01 04:10:03;;;;;;;9.02;2.85;;;;;;;6.20;100.00;99579.94;6000734;28;20022;-73
2024/01/01 04:12:58;;;;;;;8.52;3.20;;;;;;;6.28;100.00;99586.13;6003019;28;20027;-73
2024/01/01 04:15:53;;;;;;;10.43;3.67;;;;;;;6.28;100.00;99583.50;6015202;28;20045;-73
2024/01/01 04:18:50;;;;;;;7.80;3.33;;;;;;;6.18;100.00;99566.94;6021372;28;20058;-73
2024/01/01 04:21:45;;;;;;;6.47;2.80;;;;;;;6.09;100.00;99567.00;6015946;28;20026;-73
2024/01/01 04:24:44;;;;;;;7.00;2.60;;;;;;;6.14;100.00;99572.66;6007397;28;20031;-73
2024/01/01 04:27:39;;;;;;;8.60;2.75;;;;;;;6.12;100.00;99566.69;6015616;28;20031;-74
2024/01/01 04:30:34;;;;;;;14.23;3.07;;;;;;;6.10;100.00;99553.69;6020192;28;20033;-75
2024/01/01 04:33:30;;;;;;;10.93;3.33;;;;;;;6.15;100.00;99555.88;6015510;28;20291;-74
2024/01/01 04:36:25;;;;;;;6.57;3.23;;;;;;;6.03;100.00;99557.06;6003437;28;20458;-75
2024/01/01 04:39:20;;;;;;;6.45;2.47;;;;;;;6.02;100.00;99563.28;6015966;28;20035;-73
2024/01/01 04:42:16;;;;;;;6.33;2.77;;;;;;;5.95;100.00;99557.78;6020002;28;20045;-73
2024/01/01 04:45:11;;;;;;;10.53;2.87;;;;;;;5.89;100.00;99546.03;6009707;28;20075;-74
2024/01/01 04:48:06;;;;;;;7.60;3.40;;;;;;;5.79;100.00;99539.94;6015281;28;20089;-73
2024/01/01 04:51:02;;;;;;;8.27;3.10;;;;;;;5.94;100.00;99542.97;6018700;28;20076;-74
2024/01/01 04:53:58;;;;;;;10.32;3.30;;;;;;;5.91;100.00;99527.47;6014555;28;20037;-74
2024/01/01 04:56:53;;;;;;;11.43;2.97;;;;;;;5.86;100.00;99535.81;6012168;28;20590;-74
2024/01/01 04:59:49;;;;;;;9.10;3.37;;;;;;;5.92;100.00;99545.72;6008893;28;20062;-74
2024/01/01 05:02:44;;;;;;;8.68;2.97;;;;;;;5.85;100.00;99543.81;6013404;28;20034;-72
2024/01/01 05:05:39;;;;;;;7.30;2.90;;;;;;;5.97;100.00;99547.94;6006312;28;20081;-72
2024/01/01 05:08:35;;;;;;;10.57;3.10;;;;;;;6.00;100.00;99537.13;6011486;28;20088;-73
2024/01/01 05:11:30;;;;;;;11.13;3.30;;;;;;;6.15;100.00;99550.59;6013445;28;20030;-73
2024/01/01 05:14:26;;;;;;;8.88;4.30;;;;;;;6.22;100.00;99551.69;6008902;28;20681;-73
2024/01/01 05:17:21;;;;;;;8.77;3.40;;;;;;;6.23;100.00;99553.34;6016901;28;20390;-73
2024/01/01 05:20:16;;;;;;;9.25;3.03;;;;;;;6.28;100.00;99558.97;6014078;28;20478;-74
2024/01/01 05:23:12;;;;;;;9.05;3.30;;;;;;;6.27;100.00;99559.97;6019508;28;20453;-74
2024/01/01 05:26:07;;;;;;;12.13;3.47;;;;;;;6.24;100.00;99555.00;6013616;28;20046;-74
2024/01/01 05:29:03;;;;;;;9.53;3.53;;;;;;;6.38;100.00;99554.50;6008801;28;20116;-74
2024/01/01 05:31:58;;;;;;;12.15;4.63;;;;;;;6.37;100.00;99548.41;6017021;28;20285;-73
2024/01/01 05:34:54;;;;;;;9.73;3.58;;;;;;;6.38;100.00;99549.25;6008782;28;20038;-74
2024/01/01 05:37:49;;;;;;;7.43;2.85;;;;;;;6.38;100.00;99554.50;6010257;28;20763;-74
2024/01/01 05:40:46;;;;;;;12.43;3.63;;;;;;;6.44;100.00;99548.66;6015939;28;20031;-74
2024/01/01 05:43:41;;;;;;;11.35;4.18;;;;;;;6.46;100.00;99550.16;6011596;28;20657;-76
2024/01/01 05:46:36;;;;;;;11.23;3.27;;;;;;;6.42;100.00;99537.44;6005218;28;20065;-74
2024/01/01 05:49:32;;;;;;;9.98;3.72;;;;;;;6.49;100.00;99544.59;6015132;28;20552;-74
2024/01/01 05:52:27;;;;;;;13.60;4.30;;;;;;;6.56;100.00;99550.91;6019236;28;20045;-74
2024/01/01 05:55:25;;;;;;;11.27;4.28;;;;;;;6.63;100.00;99553.78;6013584;28;20031;-74
2024/01/01 05:58:20;;;;;;;10.02;3.70;;;;;;;6.64;100.00;99552.81;6015822;28;20394;-74
2024/01/01 06:01:16;;;;;;;8.50;3.37;;;;;;;6.61;100.00;99542.56;6006737;28;20041;-74
2024/01/01 06:04:11;;;;;;;10.07;3.92;;;;;;;6.67;100.00;99556.94;6015109;28;20117;-74
2024/01/01 06:07:06;;;;;;;8.13;3.30;;;;;;;6.67;100.00;99557.78;6018154;28;20049;-74
2024/01/01 06:10:02;;;;;;;10.43;3.40;;;;;;;6.64;100.00;99558.06;6022676;28;20026;-74
2024/01/01 06:12:58;;;;;;;10.57;2.88;;;;;;;6.63;100.00;99559.06;6027054;28;20313;-73
2024/01/01 06:15:54;;;;;;;9.35;3.00;;;;;;;6.73;100.00;99567.72;6014500;28;20047;-73
2024/01/01 06:18:57;;;;;;;10.55;2.85;;;;;;;6.76;100.00;99567.44;6023020;28;20030;-74
2024/01/01 06:21:52;;;;;;;8.43;2.90;;;;;;;6.78;100.00;99564.63;6014814;28;20030;-72
2024/01/01 06:24:48;;;;;;;7.40;2.80;;;;;;;6.85;100.00;99590.22;6015076;28;20076;-75
2024/01/01 06:27:43;;;;;;;10.60;3.63;;;;;;;6.72;100.00;99581.84;6003688;28;20284;-74
2024/01/01 06:30:38;;;;;;;13.53;4.47;;;;;;;6.51;100.00;99589.22;6019882;28;20270;-73
2024/01/01 06:33:34;;;;;;;7.60;3.50;;;;;;;6.41;100.00;99583.97;6018568;28;20030;-73
2024/01/01 06:36:29;;;;;;;9.93;3.10;;;;;;;6.37;100.00;99610.75;6010686;28;20042;-74
2024/01/01 06:39:24;;;;;;;8.20;2.80;;;;;;;6.29;100.00;99603.59;6005834;28;20386;-73
2024/01/01 06:42:19;;;;;;;12.50;3.90;;;;;;;6.18;100.00;99608.22;6019638;28;20606;-74
2024/01/01 06:45:15;;;;;;;8.93;3.10;;;;;;;6.07;100.00;99600.50;6023945;28;20031;-72
2024/01/01 06:48:11;;;;;;;9.45;3.53;;;;;;;5.97;100.00;99595.31;6009055;28;20030;-73
2024/01/01 06:51:12;;;;;;;13.10;3.38;;;;;;;5.91;100.00;99595.88;5995655;28;20039;-72
2024/01/01 06:54:07;;;;;;;12.18;3.55;;;;;;;5.94;100.00;99604.31;6002122;28;20054;-73
2024/01/01 06:57:03;;;;;;;13.53;3.83;;;;;;;5.91;100.00;99615.13;6008581;28;20022;-74
2024/01/01 06:59:58;;;;;;;9.57;3.70;;;;;;;5.87;100.00;99608.47;6007894;28;20046;-73
2024/01/01 07:02:54;;;;;;;10.77;2.83;;;;;;;5.93;100.00;99625.47;6016444;28;20026;-73
2024/01/01 07:05:49;;;;;;;11.77;3.85;;;;;;;5.94;100.00;99628.00;6018923;28;20034;-73
2024/01/01 07:08:44;;;;;;;7.53;2.57;;;;;;;5.95;100.00;99629.63;6010748;28;20045;-73
2024/01/01 07:11:40;;;;;;;12.43;3.60;;;;;;;5.87;100.00;99616.38;6016594;28;20332;-73
2024/01/01 07:14:35;;;;;;;8.50;3.33;;;;;;;5.89;100.00;99627.59;6013652;28;20038;-73
2024/01/01 07:17:30;;;;;;;10.00;4.17;;;;;;;5.86;100.00;99632.31;6021386;28;20044;-73
2024/01/01 07:20:26;;;;;;;9.53;3.57;;;;;;;5.92;100.00;99645.69;6009453;28;20376;-73
2024/01/01 07:23:21;;;;;;;10.97;3.57;;;;;;;5.94;100.00;99649.03;6013219;28;20035;-73
2024/01/01 07:26:16;;;;;;;9.30;3.93;;;;;;;5.95;100.00;99649.88;6005467;28;20279;-72
2024/01/01 07:29:12;;;;;;;13.17;4.03;;;;;;;5.98;100.00;99639.88;6010915;28;20035;-73
2024/01/01 07:32:07;;;;;;;11.27;3.33;;;;;;;6.01;100.00;99630.84;6004030;28;20035;-73
2024/01/01 07:35:02;;;;;;;10.37;3.43;;;;;;;6.03;100.00;99647.34;6009742;28;20053;-73
2024/01/01 07:37:58;;;;;;;9.73;2.90;;;;;;;5.93;100.00;99642.09;6000600;28;20047;-72
2024/01/01 07:40:53;;;;;;;10.77;3.63;;;;;;;5.97;100.00;99659.28;6009661;28;20117;-73
2024/01/01 07:43:48;;;;;;;9.47;3.17;;;;;;;5.92;100.00;99655.41;6008335;28;20285;-72
2024/01/01 07:46:45;;;;;;;8.07;2.40;;;;;;;5.90;100.00;99649.44;6008053;28;20033;-72
2024/01/01 07:49:44;;;;;;;7.70;3.00;;;;;;;5.79;100.00;99639.88;6010934;28;20301;-73
2024/01/01 07:52:39;;;;;;;11.43;3.13;;;;;;;5.89;100.00;99653.91;6005773;28;20088;-73
2024/01/01 07:55:36;;;;;;;8.73;3.37;;;;;;;5.86;100.00;99653.34;6012334;28;20038;-72
2024/01/01 07:58:31;;;;;;;11.40;2.85;;;;;;;5.91;100.00;99665.09;6018637;28;20379;-73
2024/01/01 08:01:27;;;;;;;10.70;3.00;;;;;;;5.89;100.00;99656.53;5998778;28;20046;-72
2024/01/01 08:04:22;;;;;;;13.60;4.13;;;;;;;5.89;100.00;99660.97;6018145;28;20026;-73
2024/01/01 08:07:17;;;;;;;12.83;3.57;;;;;;;5.84;100.00;99656.06;6004020;28;20043;-73
2024/01/01 08:10:15;;;;;;;9.13;2.67;;;;;;;5.85;100.00;99660.41;6008872;28;20042;-73
2024/01/01 08:13:10;;;;;;;8.77;3.10;;;;;;;5.88;100.00;99665.38;6013410;28;20047;-73
2024/01/01 08:16:06;;;;;;;9.02;2.95;;;;;;;5.95;100.00;99658.56;5992034;28;20037;-74
2024/01/01 08:19:01;;;;;;;8.50;2.80;;;;;;;5.97;100.00;99648.75;6020347;28;20116;-73
2024/01/01 08:21:57;;;;;;;8.53;2.90;;;;;;;5.94;100.00;99651.66;6012825;28;20141;-73
2024/01/01 08:24:52;;;;;;;7.90;2.47;;;;;;;6.04;100.00;99661.31;6005573;28;20318;-73
2024/01/01 08:27:48;;;;;;;9.68;2.42;;;;;;;5.96;100.00;99656.78;6007078;28;20030;-72
2024/01/01 08:30:43;;;;;;;8.15;3.17;;;;;;;6.03;100.00;99663.16;6008213;28;20121;-74
2024/01/01 08:33:39;;;;;;;6.57;2.40;;;;;;;6.11;100.00;99665.06;6014945;28;20026;-73
2024/01/01 08:36:34;;;;;;;8.90;2.67;;;;;;;6.05;100.00;99661.19;6015297;28;20034;-74
2024/01/01 08:39:29;;;;;;;9.73;1.90;;;;;;;6.11;100.00;99667.69;6015563;28;20126;-74
2024/01/01 08:42:25;;;;;;;14.20;3.37;;;;;;;6.06;100.00;99675.19;6009905;28;20034;-73
2024/01/01 08:45:21;;;;;;;11.02;3.10;;;;;;;6.11;100.00;99681.69;6012647;28;20297;-75
2024/01/01 08:48:16;;;;;;;11.07;2.47;;;;;;;6.11;100.00;99691.38;6014081;28;20041;-73
2024/01/01 08:51:11;;;;;;;8.20;3.20;;;;;;;6.14;100.00;99680.56;6006166;28;20030;-72
2024/01/01 08:54:07;;;;;;;6.87;2.33;;;;;;;6.19;100.00;99673.06;6015585;28;20046;-73
2024/01/01 08:57:03;;;;;;;10.45;3.03;;;;;;;6.27;100.00;99691.59;6012369;28;20285;-72
2024/01/01 08:59:58;;;;;;;11.18;2.67;;;;;;;6.24;100.00;99681.34;6020153;28;20026;-72
2024/01/01 09:02:54;;;;;;;9.85;2.50;;;;;;;6.25;100.00;99693.53;6006334;28;20045;-73
2024/01/01 09:05:50;;;;;;;9.13;3.20;;;;;;;6.20;100.00;99675.53;6008412;28;20030;-74
2024/01/01 09:08:45;;;;;;;11.18;3.00;;;;;;;6.28;100.00;99680.91;6012849;28;20077;-73
2024/01/01 09:11:40;;;;;;;4.80;2.10;;;;;;;6.22;100.00;99678.88;6012794;28;20027;-74
2024/01/01 09:14:36;;;;;;;7.20;2.10;;;;;;;6.36;100.00;99690.75;6009199;28;20038;-74
2024/01/01 09:17:31;;;;;;;10.23;2.13;;;;;;;6.38;100.00;99692.25;6011125;28;20030;-74
2024/01/01 09:20:27;;;;;;;7.75;2.90;;;;;;;6.47;100.00;99687.91;6009578;28;20117;-71
2024/01/01 09:23:26;;;;;;;11.73;3.00;;;;;;;6.53;100.00;99692.59;6003903;28;20035;-73
2024/01/01 09:26:21;;;;;;;7.20;2.35;;;;;;;6.60;100.00;99705.03;6015544;28;20026;-74
2024/01/01 09:29:17;;;;;;;8.23;2.50;;;;;;;6.71;100.00;99693.50;6015776;28;20097;-73
2024/01/01 09:32:12;;;;;;;5.68;1.75;;;;;;;6.73;100.00;99701.25;6025711;28;20118;-73
2024/01/01 09:35:08;;;;;;;8.80;2.00;;;;;;;6.87;100.00;99698.94;6018034;28;20038;-74
2024/01/01 09:38:03;;;;;;;7.57;1.90;;;;;;;6.88;100.00;99697.13;6016200;28;20042;-73
2024/01/01 09:40:59;;;;;;;11.03;1.63;;;;;;;6.91;100.00;99702.09;6020600;28;20518;-73
2024/01/01 09:43:55;;;;;;;5.45;1.60;;;;;;;7.00;100.00;99707.31;6018197;28;20274;-74
2024/01/01 09:46:50;;;;;;;6.50;1.40;;;;;;;6.97;100.00;99706.78;6008677;28;20069;-74
2024/01/01 09:49:46;;;;;;;6.57;1.53;;;;;;;6.99;100.00;99716.19;6017989;28;20034;-74
2024/01/01 09:52:41;;;;;;;7.87;1.70;;;;;;;7.01;100.00;99722.16;6015185;28;20097;-74
2024/01/01 09:55:38;;;;;;;8.80;1.70;;;;;;;7.01;100.00;99714.25;6005296;28;20090;-75
2024/01/01 09:58:41;;;;;;;8.45;1.38;;;;;;;6.97;100.00;99722.59;6007920;28;20027;-74
2024/01/01 10:01:38;;;;;;;6.07;1.40;;;;;;;6.97;100.00;99719.97;6007455;28;20556;-73
2024/01/01 10:04:37;;;;;;;4.53;1.60;;;;;;;7.14;100.00;99724.44;6008733;28;20054;-73
2024/01/01 10:07:32;;;;;;;8.00;1.88;;;;;;;7.17;100.00;99719.69;6008754;28;20506;-74
2024/01/01 10:10:28;;;;;;;4.40;1.45;;;;;;;7.24;100.00;99729.63;6010412;28;20123;-72
2024/01/01 10:13:24;;;;;;;7.27;1.47;;;;;;;7.30;100.00;99726.41;6015278;28;20339;-73
2024/01/01 10:16:26;;;;;;;5.63;1.50;;;;;;;7.21;100.00;99720.22;6009648;28;20058;-74
2024/01/01 10:19:21;;;;;;;6.28;1.50;;;;;;;7.17;100.00;99719.69;6010492;28;20046;-73
2024/01/01 10:22:20;;;;;;;6.60;1.50;;;;;;;7.30;100.00;99736.97;6011419;28;20568;-73
2024/01/01 10:25:16;;;;;;;3.20;1.10;;;;;;;7.16;100.00;99727.75;6015570;28;20285;-73
2024/01/01 10:28:16;;;;;;;6.45;1.60;;;;;;;7.19;100.00;99728.28;6019811;28;20042;-73
2024/01/01 10:31:12;;;;;;;4.57;1.10;;;;;;;7.08;100.00;99722.41;6011471;28;20475;-72
2024/01/01 10:34:07;;;;;;;7.30;1.17;;;;;;;7.12;100.00;99732.47;6011495;28;20058;-72
2024/01/01 10:37:03;;;;;;;4.30;1.40;;;;;;;7.06;100.00;99722.56;6007539;28;20465;-73
2024/01/01 10:40:04;;;;;;;7.13;1.45;;;;;;;7.01;100.00;99718.72;6010984;28;20039;-73
2024/01/01 10:42:59;;;;;;;7.07;1.92;;;;;;;7.02;100.00;99731.72;6016917;28;20031;-71
2024/01/01 10:46:00;;;;;;;3.95;1.48;;;;;;;6.88;100.00;99736.66;6014373;28;20034;-72
2024/01/01 10:48:56;;;;;;;7.97;1.98;;;;;;;6.81;100.00;99728.50;6017016;28;20069;-73
2024/01/01 10:52:09;;;;;;;6.57;1.60;;;;;;;6.91;100.00;99749.53;6021382;28;20026;-72
2024/01/01 10:55:19;;;;;;;10.65;1.88;;;;;;;6.89;100.00;99731.25;6021660;28;20034;-73
2024/01/01 10:58:22;;;;;;;7.53;1.67;;;;;;;6.89;100.00;99736.50;6015100;28;20035;-72
2024/01/01 11:01:20;;;;;;;7.75;1.50;;;;;;;6.87;100.00;99743.75;6017605;28;20065;-72
2024/01/01 11:04:19;;;;;;;6.40;1.60;;;;;;;6.97;100.00;99749.78;6015176;28;20054;-73
2024/01/01 11:07:14;;;;;;;8.45;1.98;;;;;;;6.95;100.00;99735.09;6018099;28;20026;-72
2024/01/01 11:10:09;;;;;;;5.37;1.53;;;;;;;7.01;100.00;99745.88;6018471;28;20062;-72
2024/01/01 11:13:06;;;;;;;4.50;1.40;;;;;;;7.14;100.00;99754.28;6020942;28;20733;-72
2024/01/01 11:16:05;;;;;;;4.15;1.05;;;;;;;7.14;100.00;99754.28;6019146;28;20033;-73
2024/01/01 11:19:04;;;;;;;2.35;1.10;;;;;;;7.18;100.00;99753.00;6007625;28;20030;-73
2024/01/01 11:22:19;;;;;;;6.95;1.30;;;;;;;7.14;100.00;99756.91;6021436;28;20378;-73
2024/01/01 11:25:28;;;;;;;6.38;0.80;;;;;;;7.08;100.00;99760.13;6016755;28;20030;-73
2024/01/01 11:28:39;;;;;;;6.00;0.98;;;;;;;7.04;100.00;99756.13;6018552;28;20141;-73
2024/01/01 11:31:34;;;;;;;3.92;0.90;;;;;;;7.06;100.00;99763.91;6016699;28;20081;-74
2024/01/01 11:34:30;;;;;;;6.47;1.00;;;;;;;7.00;100.00;99759.19;6017024;28;20043;-74
2024/01/01 11:37:25;;;;;;;3.57;0.70;;;;;;;6.97;100.00;99749.78;6010934;28;20046;-73
2024/01/01 11:40:24;;;;;;;2.20;0.70;;;;;;;7.01;100.00;99745.88;6020114;28;20038;-72
2024/01/01 11:43:21;;;;;;;1.85;0.73;;;;;;;7.01;100.00;99752.97;6022642;28;20552;-73
2024/01/01 11:46:26;;;;;;;0.93;0.50;;;;;;;7.04;100.00;99758.75;6012930;28;20027;-73
2024/01/01 11:49:21;;;;;;;5.30;0.90;;;;;;;7.01;100.00;99751.13;6015137;28;20038;-74
2024/01/01 11:52:17;;;;;;;2.33;0.57;;;;;;;7.04;100.00;99745.56;6016377;28;20043;-74
2024/01/01 11:55:12;;;;;;;3.70;0.82;;;;;;;6.97;100.00;99749.78;6020240;28;20433;-73
2024/01/01 11:58:08;;;;;;;1.17;0.50;;;;;;;6.99;100.00;99753.09;6017390;28;20508;-70
2024/01/01 12:01:04;;;;;;;4.15;0.50;;;;;;;7.00;100.00;99757.41;6011832;28;20022;-73
2024/01/01 12:04:02;;;;;;;4.20;0.82;;;;;;;7.04;100.00;99765.81;6009792;28;20022;-74
2024/01/01 12:06:57;;;;;;;3.53;0.80;;;;;;;6.90;100.00;99740.78;6012789;28;20062;-73
2024/01/01 12:10:07;;;;;;;1.47;0.70;;;;;;;7.12;100.00;99764.13;6011274;28;20162;-73
2024/01/01 12:13:03;;;;;;;3.28;0.77;;;;;;;7.10;100.00;99755.53;6010693;28;20427;-73
2024/01/01 12:16:14;;;;;;;1.77;0.80;;;;;;;7.14;100.00;99767.47;6013883;28;20049;-75
2024/01/01 12:19:10;;;;;;;6.38;1.23;;;;;;;7.26;100.00;99761.94;6014951;28;20046;-73
2024/01/01 12:22:05;;;;;;;6.43;1.63;;;;;;;7.24;100.00;99764.75;6011341;28;20086;-75
2024/01/01 12:25:01;;;;;;;3.85;1.42;;;;;;;7.16;100.00;99757.59;6004572;28;20656;-73
2024/01/01 12:28:03;;;;;;;2.13;0.63;;;;;;;7.27;100.00;99766.25;6011477;28;20493;-73
2024/01/01 12:31:02;;;;;;;5.65;0.82;;;;;;;7.21;100.00;99757.13;6006933;28;20114;-72
2024/01/01 12:33:57;;;;;;;5.90;1.25;;;;;;;7.08;100.00;99752.22;5986726;28;20035;-74
2024/01/01 12:36:52;;;;;;;2.87;0.80;;;;;;;7.14;100.00;99756.91;6012347;28;20070;-74
2024/01/01 12:39:50;;;;;;;2.93;0.67;;;;;;;7.15;100.00;99758.56;6008425;28;20483;-72
2024/01/01 12:42:46;;;;;;;6.57;1.20;;;;;;;7.20;100.00;99756.31;6010814;28;20050;-73
2024/01/01 12:45:42;;;;;;;3.55;1.27;;;;;;;7.24;100.00;99769.19;5936708;28;20090;-73
2024/01/01 12:48:37;;;;;;;3.17;0.80;;;;;;;7.28;100.00;99752.09;6019721;28;20035;-72
2024/01/01 12:51:33;;;;;;;1.33;0.50;;;;;;;7.31;100.00;99757.88;6005075;28;20039;-74
2024/01/01 12:54:28;;;;;;;5.07;0.77;;;;;;;7.25;100.00;99736.59;6000865;28;20038;-74
2024/01/01 12:57:23;;;;;;;2.15;0.60;;;;;;;7.43;100.00;99755.88;6005515;28;20072;-73
2024/01/01 13:00:19;;;;;;;1.80;0.73;;;;;;;7.36;100.00;99750.41;6002948;28;20027;-72
2024/01/01 13:03:15;;;;;;;4.32;1.30;;;;;;;7.42;100.00;99759.50;6004382;28;20077;-74
2024/01/01 13:06:17;;;;;;;1.93;1.07;;;;;;;7.40;100.00;99759.66;6003389;28;20418;-73
2024/01/01 13:09:14;;;;;;;4.95;1.33;;;;;;;7.45;100.00;99761.81;6005667;28;20487;-72
2024/01/01 13:12:10;;;;;;;5.70;1.55;;;;;;;7.45;100.00;99753.91;6006731;28;20038;-71
2024/01/01 13:15:06;;;;;;;5.45;1.38;;;;;;;7.38;100.00;99747.59;6011972;28;20030;-74
2024/01/01 13:18:01;;;;;;;1.83;1.25;;;;;;;7.38;100.00;99747.59;6013808;28;20379;-74
2024/01/01 13:20:57;;;;;;;5.75;1.20;;;;;;;7.36;100.00;99744.28;6010324;28;20038;-73
2024/01/01 13:23:53;;;;;;;3.47;1.15;;;;;;;7.43;100.00;99755.88;6008117;28;20034;-73
2024/01/01 13:26:48;;;;;;;3.83;1.00;;;;;;;7.33;100.00;99748.06;6000069;28;20046;-74
2024/01/01 13:29:43;;;;;;;3.37;1.10;;;;;;;7.36;100.00;99749.56;6005819;28;20406;-75
2024/01/01 13:32:39;;;;;;;2.85;1.00;;;;;;;7.35;100.00;99742.63;5989304;28;20688;-74
2024/01/01 13:35:40;;;;;;;3.47;1.60;;;;;;;7.37;100.00;99749.41;6011377;28;20039;-73
2024/01/01 13:38:38;;;;;;;3.88;1.17;;;;;;;7.36;100.00;99754.84;6006661;28;20058;-73
2024/01/01 13:41:34;;;;;;;4.50;1.27;;;;;;;7.16;100.00;99759.38;6015550;28;20026;-74
2024/01/01 13:44:29;;;;;;;6.73;1.40;;;;;;;6.98;100.00;99740.09;6001468;28;20073;-74